createdAt,value
2023-02-25T00:02:11.698Z,46.58
2023-02-25T00:07:15.954Z,46.78
2023-02-25T00:12:18.794Z,44.80
2023-02-25T00:17:21.667Z,45.80
2023-02-25T00:22:26.423Z,42.35
2023-02-25T00:27:29.809Z,43.58
2023-02-25T00:32:32.769Z,42.80
2023-02-25T00:37:37.062Z,43.42
2023-02-25T00:42:40.026Z,43.92
2023-02-25T00:47:42.926Z,41.97
2023-02-25T00:52:47.456Z,46.72
2023-02-25T00:57:51.340Z,42.72
2023-02-25T01:02:56.565Z,45.40
2023-02-25T01:08:02.195Z,42.25
2023-02-25T01:13:08.369Z,40.38
2023-02-25T01:18:11.360Z,41.40
2023-02-25T01:23:15.600Z,41.25
2023-02-25T01:28:18.502Z,43.28
2023-02-25T01:33:21.387Z,42.70
2023-02-25T01:38:25.618Z,41.63
2023-02-25T01:43:29.388Z,42.22
2023-02-25T01:48:35.629Z,41.13
2023-02-25T01:53:43.770Z,44.13
2023-02-25T01:58:47.765Z,42.50
2023-02-25T02:03:52.526Z,42.50
2023-02-25T02:08:57.340Z,43.38
2023-02-25T02:14:02.923Z,46.13
2023-02-25T02:19:16.630Z,48.38
2023-02-25T02:24:38.011Z,43.85
2023-02-25T02:30:15.857Z,45.08
2023-02-25T02:35:24.600Z,40.92
2023-02-25T02:40:40.120Z,44.10
2023-02-25T02:45:50.298Z,43.65
2023-02-25T02:50:59.328Z,41.60
2023-02-25T02:56:06.061Z,42.00
2023-02-25T03:01:13.560Z,42.28
2023-02-25T03:06:22.871Z,45.35
2023-02-25T03:11:26.797Z,44.15
2023-02-25T03:16:35.126Z,41.60
2023-02-25T03:21:43.080Z,43.85
2023-02-25T03:26:45.939Z,41.85
2023-02-25T03:31:57.192Z,41.85
2023-02-25T03:37:04.808Z,42.88
2023-02-25T03:42:13.108Z,42.58
2023-02-25T03:47:19.335Z,50.40
2023-02-25T03:52:27.217Z,43.47
2023-02-25T03:57:40.016Z,42.55
2023-02-25T04:02:43.663Z,39.50
2023-02-25T04:07:48.360Z,43.72
2023-02-25T04:12:52.081Z,43.88
2023-02-25T04:17:54.994Z,40.20
2023-02-25T04:22:59.444Z,41.20
2023-02-25T04:28:03.349Z,42.53
2023-02-25T04:33:06.335Z,38.85
2023-02-25T04:38:10.809Z,40.60
2023-02-25T04:43:13.649Z,39.60
2023-02-25T04:48:24.190Z,38.78
2023-02-25T04:53:28.623Z,41.40
2023-02-25T04:58:31.827Z,40.72
2023-02-25T05:03:35.683Z,41.20
2023-02-25T05:08:40.004Z,39.75
2023-02-25T05:13:43.912Z,38.75
2023-02-25T05:18:48.203Z,39.45
2023-02-25T05:23:54.116Z,38.03
2023-02-25T05:28:58.738Z,37.38
2023-02-25T05:34:01.881Z,40.45
2023-02-25T05:39:07.414Z,38.33
2023-02-25T05:44:11.377Z,37.88
2023-02-25T05:49:14.232Z,44.20
2023-02-25T05:54:18.562Z,40.10
2023-02-25T05:59:21.477Z,40.05
2023-02-25T06:04:24.373Z,38.63
2023-02-25T06:09:29.143Z,40.22
2023-02-25T06:14:32.053Z,39.33
2023-02-25T06:19:35.032Z,39.00
2023-02-25T06:24:40.602Z,39.88
2023-02-25T06:29:43.633Z,41.28
2023-02-25T06:34:46.701Z,39.35
2023-02-25T06:39:51.044Z,41.45
2023-02-25T06:44:54.083Z,39.60
2023-02-25T06:49:57.096Z,39.83
2023-02-25T06:55:01.470Z,37.60
2023-02-25T07:00:05.647Z,37.13
2023-02-25T07:05:09.046Z,40.55
2023-02-25T07:10:13.782Z,39.00
2023-02-25T07:15:16.704Z,39.50
2023-02-25T07:20:19.770Z,42.05
2023-02-25T07:25:39.341Z,40.88
2023-02-25T07:30:42.346Z,40.88
2023-02-25T07:35:45.541Z,39.63
2023-02-25T07:40:49.890Z,40.22
2023-02-25T07:45:52.786Z,40.95
2023-02-25T07:50:55.909Z,40.67
2023-02-25T07:56:00.302Z,41.83
2023-02-25T08:01:23.679Z,42.00
2023-02-25T08:06:27.677Z,42.03
2023-02-25T08:11:32.293Z,40.90
2023-02-25T08:16:35.507Z,40.15
2023-02-25T08:21:40.375Z,41.00
2023-02-25T08:26:44.560Z,39.85
2023-02-25T08:31:48.975Z,39.67
2023-02-25T08:36:52.002Z,39.38
2023-02-25T08:41:56.247Z,44.63
2023-02-25T08:46:59.180Z,42.15
2023-02-25T08:52:02.090Z,39.72
2023-02-25T08:57:06.692Z,40.22
2023-02-25T09:02:15.084Z,43.22
2023-02-25T09:07:17.998Z,45.90
2023-02-25T09:12:24.656Z,42.28
2023-02-25T09:17:27.742Z,44.38
2023-02-25T09:22:33.066Z,41.15
2023-02-25T09:27:37.673Z,37.30
2023-02-25T09:32:40.640Z,43.42
2023-02-25T09:37:43.580Z,37.50
2023-02-25T09:43:05.937Z,37.55
2023-02-25T09:48:16.863Z,38.45
2023-02-25T09:53:22.849Z,39.40
2023-02-25T09:58:32.552Z,41.63
2023-02-25T10:03:46.744Z,37.38
2023-02-25T10:08:56.945Z,38.90
2023-02-25T10:14:10.245Z,37.75
2023-02-25T10:19:24.491Z,36.60
2023-02-25T10:24:35.511Z,38.88
2023-02-25T10:29:46.395Z,38.50
2023-02-25T10:34:51.069Z,37.33
2023-02-25T10:39:57.370Z,37.58
2023-02-25T10:45:08.306Z,36.42
2023-02-25T10:50:17.892Z,36.92
2023-02-25T10:55:32.512Z,49.05
2023-02-25T11:00:38.480Z,45.45
2023-02-25T11:05:44.778Z,36.60
2023-02-25T11:11:02.139Z,46.10
2023-02-25T11:16:09.542Z,41.35
2023-02-25T11:21:14.408Z,37.28
2023-02-25T11:26:27.622Z,36.45
2023-02-25T11:31:37.445Z,39.15
2023-02-25T11:36:40.896Z,37.97
2023-02-25T11:41:45.132Z,38.08
2023-02-25T11:46:56.864Z,39.30
2023-02-25T11:52:08.941Z,36.65
2023-02-25T11:57:19.027Z,38.97
2023-02-25T12:02:45.140Z,36.80
2023-02-25T12:08:13.060Z,36.33
2023-02-25T12:13:47.758Z,40.72
2023-02-25T12:19:17.650Z,39.28
2023-02-25T12:24:53.992Z,36.83
2023-02-25T12:30:25.652Z,35.97
2023-02-25T12:35:47.911Z,36.78
2023-02-25T12:41:07.200Z,39.80
2023-02-25T12:46:20.770Z,38.67
2023-02-25T12:51:47.982Z,37.05
2023-02-25T12:57:04.061Z,38.28
2023-02-25T13:02:38.182Z,39.00
2023-02-25T13:07:59.979Z,38.65
2023-02-25T13:13:18.995Z,38.53
2023-02-25T13:18:28.685Z,37.15
2023-02-25T13:23:47.941Z,36.47
2023-02-25T13:29:06.195Z,36.50
2023-02-25T13:34:23.087Z,36.40
2023-02-25T13:40:05.204Z,36.40
2023-02-25T13:45:48.713Z,40.38
2023-02-25T13:51:11.797Z,41.42
2023-02-25T13:56:44.660Z,38.03
2023-02-25T14:01:57.340Z,41.65
2023-02-25T14:07:28.540Z,36.60
2023-02-25T14:12:51.211Z,40.28
2023-02-25T14:18:16.655Z,38.10
2023-02-25T14:23:30.836Z,37.72
2023-02-25T14:28:43.913Z,37.20
2023-02-25T14:34:20.483Z,41.15
2023-02-25T14:39:47.617Z,38.00
2023-02-25T14:44:57.856Z,42.92
2023-02-25T14:50:09.433Z,39.30
2023-02-25T14:55:43.700Z,42.35
2023-02-25T15:01:11.745Z,37.95
2023-02-25T15:06:32.112Z,38.78
2023-02-25T15:11:51.220Z,37.58
2023-02-25T15:17:35.359Z,37.38
2023-02-25T15:22:39.171Z,41.63
2023-02-25T15:27:46.620Z,40.53
2023-02-25T15:33:25.719Z,39.78
2023-02-25T15:38:46.233Z,37.47
2023-02-25T15:43:49.670Z,36.72
2023-02-25T15:49:06.816Z,38.40
2023-02-25T15:54:10.470Z,37.95
2023-02-25T15:59:46.641Z,38.90
2023-02-25T16:04:51.611Z,37.08
2023-02-25T16:09:58.556Z,43.97
2023-02-25T16:15:02.324Z,39.58
2023-02-25T16:20:17.566Z,39.95
2023-02-25T16:25:29.962Z,39.08
2023-02-25T16:30:42.104Z,41.00
2023-02-25T16:35:55.392Z,40.38
2023-02-25T16:41:03.039Z,37.72
2023-02-25T16:46:08.339Z,42.58
2023-02-25T16:51:20.347Z,47.30
2023-02-25T16:56:26.451Z,41.83
2023-02-25T17:01:31.209Z,40.13
2023-02-25T17:06:35.571Z,40.42
2023-02-25T17:11:38.821Z,52.30
2023-02-25T17:16:44.071Z,40.88
2023-02-25T17:21:54.098Z,40.85
2023-02-25T17:26:58.754Z,38.42
2023-02-25T17:32:13.064Z,40.35
2023-02-25T17:37:21.443Z,39.90
2023-02-25T17:42:37.391Z,39.10
2023-02-25T17:47:44.549Z,38.17
2023-02-25T17:52:50.326Z,44.15
2023-02-25T17:57:55.578Z,36.88
2023-02-25T18:03:16.875Z,42.95
2023-02-25T18:08:22.820Z,36.78
2023-02-25T18:13:38.445Z,36.08
2023-02-25T18:18:41.843Z,38.38
2023-02-25T18:23:48.156Z,35.08
2023-02-25T18:28:51.336Z,35.53
2023-02-25T18:33:55.027Z,35.55
2023-02-25T18:39:04.103Z,34.85
2023-02-25T18:44:13.650Z,35.55
2023-02-25T18:49:16.543Z,35.55
2023-02-25T18:54:20.802Z,35.20
2023-02-25T18:59:23.718Z,36.28
2023-02-25T19:04:26.637Z,37.78
2023-02-25T19:09:30.864Z,36.63
2023-02-25T19:14:34.880Z,35.73
2023-02-25T19:19:37.747Z,35.60
2023-02-25T19:24:42.423Z,35.50
2023-02-25T19:29:45.481Z,36.00
2023-02-25T19:34:49.038Z,35.15
2023-02-25T19:39:53.298Z,35.80
2023-02-25T19:44:56.172Z,41.33
2023-02-25T19:49:59.048Z,35.83
2023-02-25T19:55:04.602Z,34.83
2023-02-25T20:00:11.282Z,36.77
2023-02-25T20:05:17.239Z,34.80
2023-02-25T20:10:22.223Z,34.57
2023-02-25T20:15:26.826Z,34.47
2023-02-25T20:20:30.174Z,34.60
2023-02-25T20:25:34.459Z,34.30
2023-02-25T20:30:38.563Z,34.57
2023-02-25T20:35:42.709Z,35.13
2023-02-25T20:40:51.303Z,35.10
2023-02-25T20:45:54.591Z,35.47
2023-02-25T20:50:58.598Z,34.30
2023-02-25T20:56:02.873Z,36.90
2023-02-25T21:01:07.275Z,35.10
2023-02-25T21:06:12.665Z,35.73
2023-02-25T21:11:17.077Z,41.13
2023-02-25T21:16:20.946Z,35.03
2023-02-25T21:21:26.776Z,33.87
2023-02-25T21:26:31.180Z,35.57
2023-02-25T21:31:34.223Z,35.07
2023-02-25T21:36:37.985Z,34.43
2023-02-25T21:41:44.069Z,34.20
2023-02-25T21:46:47.669Z,34.13
2023-02-25T21:51:51.142Z,34.33
2023-02-25T21:56:55.473Z,34.07
2023-02-25T22:01:58.350Z,34.00
2023-02-25T22:07:01.225Z,35.40
2023-02-25T22:12:05.724Z,33.10
2023-02-25T22:17:08.569Z,33.40
2023-02-25T22:22:13.112Z,33.87
2023-02-25T22:27:18.278Z,33.53
2023-02-25T22:32:21.235Z,33.63
2023-02-25T22:37:24.139Z,33.63
2023-02-25T22:42:28.391Z,33.50
2023-02-25T22:47:32.113Z,32.77
2023-02-25T22:52:35.299Z,32.87
2023-02-25T22:57:39.611Z,33.33
2023-02-25T23:02:42.539Z,33.03
2023-02-25T23:07:45.384Z,34.37
2023-02-25T23:12:49.578Z,32.83
2023-02-25T23:17:53.330Z,34.17
2023-02-25T23:22:56.275Z,32.87
2023-02-25T23:28:00.729Z,33.03
2023-02-25T23:33:03.671Z,32.60
2023-02-25T23:38:06.530Z,33.40
2023-02-25T23:43:10.869Z,33.77
2023-02-25T23:48:13.672Z,33.70
2023-02-25T23:53:16.514Z,33.80
2023-02-25T23:58:20.725Z,33.27
